Time;durP1;ratioP1;P1;durP2;ratioP2;P2;SDS_P1;SDS_P2;PMS_P1;PMS_P2;Temp;Humidity;BMP_temperature;BMP_pressure;BME280_temperature;BME280_humidity;BME280_pressure;Samples;Min_cycle;Max_cycle;Signal;HPM_P1;HPM_P2
2022/05/23 00:00:17;;;;;;;4.93;1.10;;;17.40;94.60;;;;;;5026942;28;20551;-67
2022/05/23 00:02:45;;;;;;;;;;;17.30;94.70;;;;;;5026762;28;20077;-67
2022/05/23 00:05:10;;;;;;;4.90;0.90;;;17.30;94.80;;;;;;5028632;28;20006;-68
2022/05/23 00:07:40;;;;;;;6.88;1.35;;;17.40;94.80;;;;;;5028476;28;20114;-68
2022/05/23 00:10:07;;;;;;;4.50;0.65;;;17.40;94.90;;;;;;5029583;28;20141;-67
2022/05/23 00:12:33;;;;;;;4.05;1.10;;;17.30;95.00;;;;;;5026290;28;20038;-67
2022/05/23 00:14:58;;;;;;;6.47;0.85;;;17.30;94.90;;;;;;5028942;28;20429;-68
2022/05/23 00:17:24;;;;;;;4.32;0.73;;;17.30;94.90;;;;;;5027997;28;20043;-68
2022/05/23 00:19:50;;;;;;;2.00;0.57;;;17.30;94.90;;;;;;5028734;28;20029;-68
2022/05/23 00:22:16;;;;;;;7.22;0.73;;;17.20;94.90;;;;;;5026993;28;20045;-67
2022/05/23 00:24:44;;;;;;;7.13;1.13;;;17.30;95.10;;;;;;5025648;28;20125;-67
2022/05/23 00:27:13;;;;;;;5.30;0.75;;;17.20;95.10;;;;;;5025502;28;20117;-67
2022/05/23 00:29:40;;;;;;;3.92;0.88;;;17.20;95.50;;;;;;5027920;28;20033;-67
2022/05/23 00:37:34;;;;;;;3.78;0.80;;;17.20;95.30;;;;;;5007413;28;20036;-68
2022/05/23 00:40:00;;;;;;;2.42;0.88;;;17.10;95.40;;;;;;5028370;28;20045;-67
2022/05/23 00:45:15;;;;;;;2.15;0.77;;;17.10;95.40;;;;;;5027991;28;20091;-68
2022/05/23 00:47:41;;;;;;;1.92;0.80;;;17.10;95.50;;;;;;5028109;28;20448;-67
2022/05/23 00:50:07;;;;;;;3.88;0.90;;;17.10;95.60;;;;;;5028562;28;20103;-70
2022/05/23 00:52:41;;;;;;;3.60;0.80;;;17.10;95.60;;;;;;5035376;28;20026;-68
2022/05/23 00:55:13;;;;;;;4.55;0.75;;;17.10;95.70;;;;;;5033627;28;20033;-70
2022/05/23 00:57:45;;;;;;;3.95;0.75;;;17.10;95.70;;;;;;5037161;28;20033;-69
2022/05/23 01:00:11;;;;;;;2.85;0.95;;;17.00;95.80;;;;;;5036087;28;20048;-67
2022/05/23 01:02:38;;;;;;;2.55;0.80;;;17.00;95.90;;;;;;5028774;28;20037;-67
2022/05/23 01:05:08;;;;;;;1.67;0.60;;;16.90;96.00;;;;;;5028972;28;20393;-67
2022/05/23 01:07:34;;;;;;;1.33;0.45;;;17.00;96.00;;;;;;5027843;28;20022;-67
2022/05/23 01:10:00;;;;;;;1.67;0.50;;;17.00;96.00;;;;;;5027895;28;20040;-67
2022/05/23 01:12:28;;;;;;;4.05;1.08;;;17.00;96.00;;;;;;5026433;28;20061;-68
2022/05/23 01:15:00;;;;;;;5.68;0.88;;;16.90;96.00;;;;;;5026459;28;20511;-69
2022/05/23 01:17:27;;;;;;;3.45;1.10;;;16.90;96.10;;;;;;5026819;28;20152;-68
2022/05/23 01:19:53;;;;;;;4.78;0.65;;;16.80;96.40;;;;;;5028062;28;20041;-67
2022/05/23 01:23:06;;;;;;;2.38;0.50;;;16.80;96.50;;;;;;5027324;28;20048;-67
2022/05/23 01:25:39;;;;;;;4.38;0.82;;;16.70;96.70;;;;;;4996826;28;20040;-67
2022/05/23 01:28:05;;;;;;;5.68;1.30;;;16.70;96.80;;;;;;5027889;28;20033;-69
2022/05/23 01:30:34;;;;;;;2.65;0.68;;;16.70;96.90;;;;;;5026805;28;20043;-67
2022/05/23 01:33:00;;;;;;;2.80;0.77;;;16.60;97.10;;;;;;5027390;28;20448;-68
2022/05/23 01:35:26;;;;;;;1.52;1.02;;;16.60;97.20;;;;;;5022015;28;20033;-68
2022/05/23 01:37:52;;;;;;;3.88;1.08;;;16.50;97.30;;;;;;5016687;28;20171;-67
2022/05/23 01:40:19;;;;;;;9.02;1.00;;;16.50;97.50;;;;;;5022867;28;20493;-69
2022/05/23 01:42:45;;;;;;;0.95;0.45;;;16.40;97.70;;;;;;5025954;28;20033;-67
2022/05/23 01:45:13;;;;;;;3.40;0.80;;;16.40;97.70;;;;;;5023954;28;20033;-67
2022/05/23 01:47:39;;;;;;;4.28;0.80;;;16.40;97.70;;;;;;5026570;28;20109;-67
2022/05/23 01:50:05;;;;;;;1.63;0.52;;;16.40;97.90;;;;;;5026960;28;20669;-68
2022/05/23 01:52:31;;;;;;;3.28;1.25;;;16.40;98.00;;;;;;5025478;28;20076;-68
2022/05/23 01:54:57;;;;;;;4.70;0.60;;;16.40;98.10;;;;;;5025678;28;20065;-69
2022/05/23 01:57:22;;;;;;;2.35;0.82;;;16.40;98.00;;;;;;5025683;28;20516;-67
2022/05/23 02:02:32;;;;;;;3.10;0.80;;;16.30;98.20;;;;;;5021882;28;20500;-67
2022/05/23 02:04:58;;;;;;;10.88;0.90;;;16.30;98.40;;;;;;5027277;28;20033;-68
2022/05/23 02:07:23;;;;;;;6.15;1.13;;;16.30;98.50;;;;;;5026419;28;20493;-69
2022/05/23 02:09:49;;;;;;;3.38;0.90;;;16.20;98.70;;;;;;5026726;28;20551;-67
2022/05/23 02:12:18;;;;;;;4.57;1.42;;;16.20;98.80;;;;;;5026153;28;20040;-68
2022/05/23 02:14:46;;;;;;;5.35;1.15;;;16.10;99.00;;;;;;5026423;28;20116;-68
2022/05/23 02:17:12;;;;;;;2.55;0.60;;;16.10;99.00;;;;;;5026499;28;20116;-68
2022/05/23 02:19:38;;;;;;;5.15;1.00;;;16.10;99.40;;;;;;5026019;28;20120;-67
2022/05/23 02:22:05;;;;;;;3.30;0.70;;;16.00;99.40;;;;;;5026627;28;20120;-67
2022/05/23 02:24:30;;;;;;;3.95;1.45;;;16.10;99.50;;;;;;5024692;28;20409;-68
2022/05/23 02:26:56;;;;;;;3.22;0.80;;;16.10;99.70;;;;;;5024596;28;20032;-67
2022/05/23 02:29:22;;;;;;;2.33;0.70;;;16.00;99.80;;;;;;5024509;28;20500;-67
2022/05/23 02:31:48;;;;;;;3.00;1.17;;;16.00;99.80;;;;;;5026602;28;20128;-68
2022/05/23 02:34:15;;;;;;;4.32;0.73;;;16.10;99.80;;;;;;5017256;28;20057;-67
2022/05/23 02:36:41;;;;;;;2.83;0.80;;;16.00;99.90;;;;;;5014398;28;20073;-67
2022/05/23 02:39:06;;;;;;;3.55;0.88;;;15.90;99.90;;;;;;5021017;28;20056;-67
2022/05/23 02:41:33;;;;;;;2.90;0.70;;;15.90;99.90;;;;;;5025900;28;20037;-67
2022/05/23 02:43:59;;;;;;;3.03;1.20;;;15.90;99.90;;;;;;5024270;28;20030;-67
2022/05/23 02:46:25;;;;;;;5.07;0.73;;;15.90;99.90;;;;;;5025247;28;20033;-67
2022/05/23 02:48:50;;;;;;;5.07;0.80;;;15.90;99.90;;;;;;5025797;28;20041;-68
2022/05/23 02:51:16;;;;;;;1.83;0.80;;;15.90;99.90;;;;;;5025842;28;20497;-67
2022/05/23 02:53:41;;;;;;;2.88;1.33;;;16.00;99.90;;;;;;5025550;28;20484;-67
2022/05/23 02:56:07;;;;;;;4.60;0.90;;;15.90;99.90;;;;;;5024787;28;20038;-68
2022/05/23 02:58:32;;;;;;;4.50;1.13;;;16.00;99.90;;;;;;5024874;28;20064;-67
2022/05/23 03:00:58;;;;;;;3.30;1.00;;;16.00;99.90;;;;;;5026479;28;20033;-67
2022/05/23 03:03:23;;;;;;;3.20;0.82;;;16.00;99.90;;;;;;5025217;28;20432;-67
2022/05/23 03:05:53;;;;;;;2.58;0.90;;;15.90;99.90;;;;;;5025993;28;20040;-68
2022/05/23 03:08:22;;;;;;;2.78;0.77;;;15.90;99.90;;;;;;5025912;28;20033;-67
2022/05/23 03:10:50;;;;;;;8.85;1.30;;;15.90;99.90;;;;;;5025781;28;20049;-69
2022/05/23 03:13:16;;;;;;;6.35;0.90;;;15.90;99.90;;;;;;5025385;28;20117;-67
2022/05/23 03:15:42;;;;;;;1.30;0.80;;;15.90;99.90;;;;;;5021068;28;20157;-66
2022/05/23 03:18:08;;;;;;;5.03;1.23;;;15.80;99.90;;;;;;5029250;28;20120;-67
2022/05/23 03:20:34;;;;;;;3.03;0.90;;;15.80;99.90;;;;;;5029283;28;20033;-68
2022/05/23 03:28:31;;;;;;;3.45;1.20;;;15.80;99.90;;;;;;5018143;28;20060;-67
2022/05/23 03:30:57;;;;;;;1.85;0.95;;;15.80;99.90;;;;;;5029737;28;20061;-67
2022/05/23 03:33:23;;;;;;;5.65;1.20;;;15.70;99.90;;;;;;5027184;28;20025;-69
2022/05/23 03:35:48;;;;;;;3.10;1.17;;;15.70;99.90;;;;;;5027735;28;20045;-67
2022/05/23 03:38:14;;;;;;;6.05;1.20;;;15.70;99.90;;;;;;5021095;28;20452;-67
2022/05/23 03:40:41;;;;;;;5.28;1.25;;;15.70;99.90;;;;;;5021203;28;20037;-67
2022/05/23 03:43:07;;;;;;;3.03;1.00;;;15.70;99.90;;;;;;5027869;28;20045;-67
2022/05/23 03:45:33;;;;;;;7.15;1.30;;;15.70;99.90;;;;;;5027739;28;20029;-67
2022/05/23 03:48:00;;;;;;;6.50;0.93;;;15.70;99.90;;;;;;5028225;28;20037;-67
2022/05/23 03:50:28;;;;;;;3.75;0.90;;;15.70;99.90;;;;;;5027700;28;20417;-68
2022/05/23 03:52:54;;;;;;;4.15;1.63;;;15.60;99.90;;;;;;5028138;28;20095;-68
2022/05/23 03:55:21;;;;;;;4.13;1.10;;;15.60;99.90;;;;;;5027533;28;20025;-68
2022/05/23 03:57:47;;;;;;;5.05;1.00;;;15.60;99.90;;;;;;5025908;28;20048;-68
2022/05/23 04:00:13;;;;;;;5.63;1.20;;;15.50;99.90;;;;;;5027458;28;20026;-68
2022/05/23 04:02:40;;;;;;;2.15;1.00;;;15.50;99.90;;;;;;5020215;28;20041;-67
2022/05/23 04:05:10;;;;;;;6.32;1.35;;;15.50;99.90;;;;;;5028802;28;20294;-67
2022/05/23 04:07:37;;;;;;;4.65;1.17;;;15.50;99.90;;;;;;5028132;28;20045;-67
2022/05/23 04:10:06;;;;;;;10.07;1.67;;;15.50;99.90;;;;;;5028884;28;20915;-68
2022/05/23 04:12:32;;;;;;;6.97;1.52;;;15.40;99.90;;;;;;5027201;28;20041;-67
2022/05/23 04:14:57;;;;;;;3.67;1.08;;;15.40;99.90;;;;;;5028950;28;20425;-67
2022/05/23 04:17:23;;;;;;;3.85;0.90;;;15.50;99.90;;;;;;5028192;28;20072;-68
2022/05/23 04:19:48;;;;;;;3.55;1.00;;;15.40;99.90;;;;;;5028378;28;20026;-67
2022/05/23 04:22:14;;;;;;;6.13;1.45;;;15.40;99.90;;;;;;5028615;28;20149;-67
2022/05/23 04:24:40;;;;;;;3.80;1.35;;;15.40;99.90;;;;;;5026281;28;20033;-67
2022/05/23 04:27:05;;;;;;;4.47;1.08;;;15.50;99.90;;;;;;5025985;28;20048;-67
2022/05/23 04:29:31;;;;;;;6.47;1.35;;;15.50;99.90;;;;;;5027219;28;20112;-69
2022/05/23 04:31:56;;;;;;;1.73;0.98;;;15.40;99.90;;;;;;5013154;28;20034;-68
2022/05/23 04:37:06;;;;;;;2.97;1.02;;;15.50;99.90;;;;;;5012442;28;20142;-67
2022/05/23 04:39:32;;;;;;;8.00;1.52;;;15.60;99.90;;;;;;5015754;28;20493;-67
2022/05/23 04:41:57;;;;;;;3.20;1.05;;;15.60;99.90;;;;;;5005500;28;20379;-68
2022/05/23 04:44:23;;;;;;;1.67;1.05;;;15.60;99.90;;;;;;5010062;28;20029;-68
2022/05/23 04:49:41;;;;;;;9.93;1.85;;;15.60;99.90;;;;;;5009310;28;20037;-67
2022/05/23 04:52:09;;;;;;;6.72;1.35;;;15.70;99.90;;;;;;5010284;28;20095;-67
2022/05/23 04:54:36;;;;;;;4.72;1.38;;;15.70;99.90;;;;;;5004542;28;20087;-67
2022/05/23 04:57:02;;;;;;;3.25;1.35;;;15.70;99.90;;;;;;5021381;28;20045;-68
2022/05/23 04:59:27;;;;;;;4.18;1.23;;;15.70;99.90;;;;;;5016227;28;20054;-67
2022/05/23 05:01:53;;;;;;;4.15;1.60;;;15.70;99.90;;;;;;5003645;28;20040;-69
2022/05/23 05:04:18;;;;;;;3.22;1.17;;;15.80;99.90;;;;;;5009688;28;20801;-68
2022/05/23 05:06:44;;;;;;;4.68;1.27;;;15.80;99.90;;;;;;5013025;28;20034;-67
2022/05/23 05:09:09;;;;;;;8.70;2.08;;;15.90;99.90;;;;;;5013554;28;20044;-67
2022/05/23 05:11:37;;;;;;;7.43;1.33;;;15.90;99.90;;;;;;5015340;28;20199;-68
2022/05/23 05:14:04;;;;;;;3.33;1.40;;;16.00;99.90;;;;;;5012126;28;20066;-68
2022/05/23 05:16:31;;;;;;;2.75;1.50;;;16.10;99.90;;;;;;5013632;28;20037;-68
2022/05/23 05:18:56;;;;;;;2.50;1.20;;;16.20;99.90;;;;;;5011589;28;20034;-69
2022/05/23 05:21:23;;;;;;;4.05;1.33;;;16.20;99.90;;;;;;5004347;28;20044;-69
2022/05/23 05:23:49;;;;;;;6.25;1.60;;;16.30;99.90;;;;;;5010914;28;20052;-67
2022/05/23 05:26:15;;;;;;;8.88;1.80;;;16.40;99.90;;;;;;5009633;28;20482;-67
2022/05/23 05:28:40;;;;;;;2.75;1.30;;;16.50;99.90;;;;;;5008593;28;20124;-68
2022/05/23 05:31:16;;;;;;;5.05;1.92;;;16.60;99.90;;;;;;5008338;28;20144;-67
2022/05/23 05:33:48;;;;;;;4.70;1.48;;;16.80;99.90;;;;;;5009931;28;20038;-67
2022/05/23 05:36:19;;;;;;;6.38;2.05;;;16.80;99.90;;;;;;5013301;28;20034;-67
2022/05/23 05:38:54;;;;;;;3.75;1.40;;;16.90;99.90;;;;;;5013904;28;20058;-67
2022/05/23 05:41:25;;;;;;;5.03;1.92;;;16.90;99.90;;;;;;5012487;28;20034;-67
2022/05/23 05:43:59;;;;;;;5.18;1.40;;;16.90;99.90;;;;;;5010543;28;20445;-68
2022/05/23 05:46:30;;;;;;;7.82;1.70;;;16.90;99.90;;;;;;5011161;28;20044;-67
2022/05/23 05:48:59;;;;;;;4.53;1.70;;;16.90;99.90;;;;;;5008940;28;20041;-68
2022/05/23 05:51:25;;;;;;;6.28;1.70;;;16.90;99.90;;;;;;5009927;28;20038;-67
2022/05/23 05:53:52;;;;;;;4.30;1.45;;;17.00;99.90;;;;;;5005627;28;20068;-68
2022/05/23 05:56:18;;;;;;;7.28;1.80;;;17.00;99.90;;;;;;5007738;28;20037;-69
2022/05/23 05:58:44;;;;;;;5.45;1.58;;;17.10;99.90;;;;;;5008487;28;20050;-70
2022/05/23 06:01:10;;;;;;;6.22;2.10;;;17.30;99.90;;;;;;5006154;28;20306;-67
2022/05/23 06:03:36;;;;;;;7.05;2.22;;;17.40;99.90;;;;;;5005978;28;20040;-67
2022/05/23 06:11:32;;;;;;;6.75;2.70;;;18.00;99.90;;;;;;5008856;28;20045;-68
2022/05/23 06:14:03;;;;;;;6.20;2.83;;;18.10;99.90;;;;;;5006056;28;20493;-67
2022/05/23 06:16:34;;;;;;;7.45;2.00;;;18.10;99.90;;;;;;5011137;28;20112;-66
2022/05/23 06:18:59;;;;;;;;;;;18.20;99.90;;;;;;5010888;28;20091;-68
2022/05/23 06:21:26;;;;;;;3.42;2.20;;;18.00;99.90;;;;;;5007961;28;21314;-70
2022/05/23 06:23:53;;;;;;;4.47;1.95;;;18.00;99.90;;;;;;5008236;28;20057;-69
2022/05/23 06:26:23;;;;;;;6.90;2.60;;;18.00;99.90;;;;;;5010796;28;20030;-67
2022/05/23 06:28:50;;;;;;;12.35;2.10;;;18.00;99.90;;;;;;5009988;28;20461;-69
2022/05/23 06:31:16;;;;;;;6.35;1.88;;;18.00;99.90;;;;;;5006603;28;20065;-71
2022/05/23 06:33:43;;;;;;;5.22;1.60;;;18.20;99.90;;;;;;5011574;28;20048;-72
2022/05/23 06:36:10;;;;;;;4.85;1.60;;;18.30;99.90;;;;;;5010629;28;20452;-68
2022/05/23 06:38:38;;;;;;;7.20;2.30;;;18.40;99.90;;;;;;5008417;28;20038;-68
2022/05/23 06:41:06;;;;;;;3.72;1.50;;;18.40;99.90;;;;;;5009562;28;20068;-67
2022/05/23 06:43:32;;;;;;;7.43;1.90;;;18.30;99.90;;;;;;5009167;28;20048;-66
2022/05/23 06:45:59;;;;;;;9.75;2.35;;;18.50;99.90;;;;;;5009628;28;20040;-67
2022/05/23 06:48:25;;;;;;;6.45;2.45;;;18.50;99.90;;;;;;5013567;28;20043;-66
2022/05/23 06:50:51;;;;;;;5.05;2.45;;;18.60;99.90;;;;;;5020566;28;20041;-66
2022/05/23 06:53:22;;;;;;;9.23;2.20;;;18.60;99.90;;;;;;5030201;28;20045;-68
2022/05/23 06:55:48;;;;;;;7.40;2.00;;;18.70;99.90;;;;;;5028574;28;20045;-70
2022/05/23 06:58:15;;;;;;;3.90;1.83;;;18.70;99.90;;;;;;5032695;28;20052;-70
2022/05/23 07:00:42;;;;;;;6.82;1.90;;;18.70;99.90;;;;;;5026327;28;20049;-67
2022/05/23 07:03:07;;;;;;;7.82;2.13;;;18.90;99.90;;;;;;5010840;28;20045;-69
2022/05/23 07:13:51;;;;;;;4.35;2.28;;;19.60;99.90;;;;;;5011008;28;20108;-69
2022/05/23 07:16:17;;;;;;;7.63;2.00;;;19.70;99.90;;;;;;5010912;28;20069;-66
2022/05/23 07:18:44;;;;;;;9.18;2.20;;;19.80;99.90;;;;;;5015442;28;20041;-67
2022/05/23 07:21:09;;;;;;;4.75;2.08;;;19.90;99.90;;;;;;5011497;28;20065;-68
2022/05/23 07:23:36;;;;;;;10.70;2.08;;;20.00;99.90;;;;;;5008416;28;20030;-67
2022/05/23 07:26:07;;;;;;;5.55;2.03;;;20.10;99.90;;;;;;5014796;28;20067;-70
2022/05/23 07:28:34;;;;;;;7.10;2.33;;;20.00;99.90;;;;;;5011490;28;20037;-70
2022/05/23 07:31:00;;;;;;;4.63;1.70;;;19.80;99.90;;;;;;5008377;28;20033;-66
2022/05/23 07:33:26;;;;;;;8.82;1.98;;;19.70;99.90;;;;;;5011344;28;20111;-66
2022/05/23 07:35:56;;;;;;;5.85;2.42;;;19.60;99.90;;;;;;5012854;28;20048;-67
2022/05/23 07:38:21;;;;;;;8.65;2.38;;;19.40;99.90;;;;;;5011659;28;20057;-66
2022/05/23 07:40:54;;;;;;;9.75;2.33;;;19.40;99.90;;;;;;5011502;28;20081;-66
2022/05/23 07:43:21;;;;;;;7.03;2.30;;;19.30;99.90;;;;;;5013222;28;20109;-67
2022/05/23 07:45:49;;;;;;;7.45;2.10;;;19.20;99.90;;;;;;5015603;28;20117;-67
2022/05/23 07:48:15;;;;;;;6.63;2.30;;;19.20;99.90;;;;;;5011573;28;20033;-67
2022/05/23 07:50:43;;;;;;;6.50;2.40;;;19.20;99.90;;;;;;5011673;28;20045;-66
2022/05/23 08:01:27;;;;;;;7.22;2.50;;;19.60;99.90;;;;;;5010048;28;20033;-67
2022/05/23 08:03:54;;;;;;;13.27;3.20;;;19.90;99.90;;;;;;5015331;28;20029;-67
2022/05/23 08:06:19;;;;;;;4.13;1.63;;;20.00;99.90;;;;;;5015954;28;20052;-66
2022/05/23 08:08:45;;;;;;;6.28;2.25;;;20.20;99.90;;;;;;5008924;28;20050;-67
2022/05/23 08:11:13;;;;;;;9.13;2.38;;;20.40;99.90;;;;;;5014320;28;20041;-69
2022/05/23 08:13:42;;;;;;;5.13;2.22;;;20.50;99.90;;;;;;5013307;28;20041;-67
2022/05/23 08:16:07;;;;;;;7.90;2.08;;;20.60;99.90;;;;;;5010029;28;20096;-68
2022/05/23 08:18:33;;;;;;;5.75;2.45;;;20.70;99.90;;;;;;5010970;28;20041;-68
2022/05/23 08:20:59;;;;;;;7.65;2.10;;;20.90;99.90;;;;;;5012462;28;20039;-68
2022/05/23 08:23:25;;;;;;;13.60;2.35;;;21.30;99.90;;;;;;5011522;28;20037;-67
2022/05/23 08:25:51;;;;;;;4.85;2.30;;;21.60;99.90;;;;;;5008640;28;20038;-68
2022/05/23 08:28:17;;;;;;;4.15;1.98;;;22.00;99.90;;;;;;5013372;28;20045;-67
2022/05/23 08:30:43;;;;;;;7.05;2.55;;;22.30;99.90;;;;;;5012879;28;20045;-71
2022/05/23 08:33:08;;;;;;;5.25;2.00;;;22.50;99.90;;;;;;5008487;28;20030;-69
2022/05/23 08:35:34;;;;;;;6.03;1.92;;;22.60;98.90;;;;;;5014532;28;20036;-71
2022/05/23 08:38:00;;;;;;;4.97;1.77;;;22.70;99.80;;;;;;5012772;28;20037;-67
2022/05/23 08:40:35;;;;;;;6.72;2.58;;;22.80;99.70;;;;;;5009030;28;20033;-67
2022/05/23 08:43:05;;;;;;;8.02;2.65;;;22.80;99.20;;;;;;5004296;28;20695;-68
2022/05/23 08:45:42;;;;;;;6.70;2.45;;;22.80;98.80;;;;;;5010161;28;20058;-67
2022/05/23 08:48:29;;;;;;;7.85;2.70;;;22.80;99.00;;;;;;5013579;28;20378;-70
2022/05/23 08:51:17;;;;;;;5.35;2.20;;;22.80;98.80;;;;;;5009025;28;20110;-67
2022/05/23 08:54:01;;;;;;;8.85;3.08;;;23.00;98.20;;;;;;5006963;28;20049;-67
2022/05/23 08:56:31;;;;;;;5.53;2.67;;;23.20;99.40;;;;;;5008443;28;20034;-68
2022/05/23 08:59:00;;;;;;;7.93;2.22;;;23.30;97.90;;;;;;5009408;28;20099;-67
2022/05/23 09:01:57;;;;;;;8.65;2.90;;;23.10;99.40;;;;;;5007293;28;20017;-67
2022/05/23 09:04:53;;;;;;;9.35;2.63;;;23.00;98.90;;;;;;5010428;28;20042;-72
2022/05/23 09:07:33;;;;;;;6.20;2.83;;;23.00;98.40;;;;;;5011375;28;20029;-67
2022/05/23 09:10:04;;;;;;;5.33;2.23;;;22.70;98.00;;;;;;5009207;28;20844;-65
2022/05/23 09:12:29;;;;;;;4.25;2.30;;;22.70;98.80;;;;;;5006697;28;20448;-67
2022/05/23 09:14:56;;;;;;;7.13;2.58;;;22.50;98.60;;;;;;5008239;28;20045;-66
2022/05/23 09:17:26;;;;;;;5.85;2.10;;;22.40;98.80;;;;;;5006003;28;20029;-65
2022/05/23 09:20:06;;;;;;;8.65;2.42;;;22.20;99.60;;;;;;5008426;28;20042;-65
2022/05/23 09:22:51;;;;;;;8.57;2.45;;;22.20;99.90;;;;;;5006875;28;20057;-65
2022/05/23 09:25:22;;;;;;;7.05;2.90;;;22.20;99.40;;;;;;5006848;28;20061;-65
2022/05/23 09:28:06;;;;;;;6.60;2.80;;;22.00;99.80;;;;;;5012966;28;20120;-66
2022/05/23 09:30:35;;;;;;;4.88;2.80;;;21.90;99.90;;;;;;5011953;28;20045;-66
2022/05/23 09:33:01;;;;;;;7.57;2.95;;;21.80;99.70;;;;;;5003052;28;20030;-65
2022/05/23 09:35:36;;;;;;;17.73;4.53;;;21.80;99.90;;;;;;5008787;28;20058;-69
2022/05/23 09:38:21;;;;;;;5.40;2.65;;;21.70;99.90;;;;;;5011063;28;20034;-65
2022/05/23 09:40:47;;;;;;;5.63;3.08;;;21.70;99.90;;;;;;5009713;28;20041;-68
2022/05/23 09:49:12;;;;;;;24.92;4.75;;;21.40;99.90;;;;;;5010142;28;20048;-67
2022/05/23 09:51:54;;;;;;;12.80;3.10;;;21.30;99.90;;;;;;5009656;28;20046;-67
2022/05/23 09:54:31;;;;;;;6.50;2.78;;;21.30;99.90;;;;;;5006852;28;20045;-68
2022/05/23 09:57:01;;;;;;;7.07;2.67;;;21.40;99.90;;;;;;5006015;28;20405;-67
2022/05/23 09:59:31;;;;;;;8.25;2.95;;;21.30;99.90;;;;;;4997081;28;20050;-67
2022/05/23 10:02:01;;;;;;;8.00;3.72;;;21.40;99.90;;;;;;5006418;28;20764;-68
2022/05/23 10:04:30;;;;;;;9.13;3.45;;;21.40;99.90;;;;;;5001908;28;20034;-68
2022/05/23 10:06:56;;;;;;;5.25;2.55;;;21.30;99.90;;;;;;5000942;28;20049;-66
2022/05/23 10:09:29;;;;;;;15.20;2.65;;;21.30;99.90;;;;;;5004137;28;20044;-69
2022/05/23 10:11:59;;;;;;;8.38;2.90;;;21.50;99.90;;;;;;5004397;28;20045;-66
2022/05/23 10:14:40;;;;;;;8.32;3.03;;;21.50;99.90;;;;;;5000341;28;20456;-67
2022/05/23 10:17:07;;;;;;;12.00;2.70;;;21.60;99.90;;;;;;5002001;28;20044;-66
2022/05/23 10:19:36;;;;;;;7.45;2.83;;;21.70;99.90;;;;;;5005495;28;20025;-68
2022/05/23 10:22:06;;;;;;;8.32;2.55;;;21.80;99.90;;;;;;5004325;28;20038;-66
2022/05/23 10:24:35;;;;;;;5.05;2.10;;;22.00;99.90;;;;;;4999875;28;20045;-65
2022/05/23 10:27:12;;;;;;;10.48;2.92;;;22.00;99.90;;;;;;5006282;28;20531;-67
2022/05/23 10:29:53;;;;;;;7.05;2.83;;;22.00;99.90;;;;;;5011043;28;20382;-65
2022/05/23 10:32:35;;;;;;;7.82;3.28;;;21.90;99.90;;;;;;5003933;28;20061;-67
2022/05/23 10:35:35;;;;;;;6.30;2.42;;;21.90;99.90;;;;;;5006013;28;20048;-65
2022/05/23 10:44:09;;;;;;;10.82;2.30;;;21.90;99.90;;;;;;5011795;28;20056;-70
2022/05/23 10:46:36;;;;;;;7.68;2.40;;;22.10;99.40;;;;;;5007586;28;20030;-71
2022/05/23 10:49:23;;;;;;;7.40;2.63;;;22.10;99.60;;;;;;5004871;28;20037;-68
2022/05/23 10:52:15;;;;;;;5.65;2.92;;;22.30;99.70;;;;;;5003414;28;20849;-68
2022/05/23 10:54:50;;;;;;;8.95;2.60;;;22.50;99.90;;;;;;5012055;28;20056;-66
2022/05/23 10:57:24;;;;;;;8.18;2.92;;;22.60;99.90;;;;;;5010328;28;20037;-66
2022/05/23 11:00:13;;;;;;;6.13;3.33;;;22.60;99.60;;;;;;5005849;28;20065;-65
2022/05/23 11:03:11;;;;;;;4.68;2.58;;;22.60;99.70;;;;;;5012563;28;20038;-65
2022/05/23 11:06:04;;;;;;;9.65;3.05;;;22.50;99.00;;;;;;5009914;28;20486;-66
2022/05/23 11:08:54;;;;;;;6.00;2.58;;;22.70;98.50;;;;;;5010311;28;20093;-65
2022/05/23 11:11:53;;;;;;;10.85;3.15;;;23.00;97.80;;;;;;5009707;28;20060;-68
2022/05/23 11:14:39;;;;;;;6.80;2.88;;;23.20;97.90;;;;;;5011336;28;20038;-65
2022/05/23 11:17:19;;;;;;;10.52;3.08;;;23.50;97.80;;;;;;5010339;28;20042;-66
2022/05/23 11:19:56;;;;;;;;;;;23.60;97.70;;;;;;5006496;28;20048;-65
2022/05/23 11:22:28;;;;;;;3.88;2.17;;;23.70;97.10;;;;;;5010260;28;19913;-69
2022/05/23 11:25:13;;;;;;;4.63;2.38;;;23.80;97.20;;;;;;5010031;28;20042;-67
2022/05/23 11:33:48;;;;;;;5.10;2.17;;;23.90;95.40;;;;;;5005217;28;20100;-66
2022/05/23 11:36:34;;;;;;;7.47;2.08;;;23.80;96.20;;;;;;5012326;28;20037;-69
2022/05/23 11:39:00;;;;;;;7.75;2.65;;;23.80;95.80;;;;;;5010628;28;20041;-71
2022/05/23 11:41:40;;;;;;;11.43;2.13;;;23.70;95.90;;;;;;5007666;28;20034;-67
2022/05/23 11:44:35;;;;;;;4.82;0.98;;;23.60;96.30;;;;;;5007942;28;20053;-67
2022/05/23 11:47:21;;;;;;;2.88;1.30;;;23.50;94.60;;;;;;5005406;28;20046;-67
2022/05/23 11:50:02;;;;;;;4.35;1.50;;;23.60;95.20;;;;;;5009838;28;20610;-67
2022/05/23 11:52:40;;;;;;;4.35;1.48;;;23.70;95.00;;;;;;5011121;28;20038;-66
2022/05/23 11:55:31;;;;;;;2.47;1.55;;;23.70;95.00;;;;;;5009166;28;20108;-67
2022/05/23 11:58:16;;;;;;;6.10;2.00;;;23.80;96.70;;;;;;5008913;28;20070;-66
2022/05/23 12:01:07;;;;;;;7.60;1.38;;;24.00;95.40;;;;;;5006591;28;20042;-69
2022/05/23 12:03:51;;;;;;;4.57;1.75;;;24.10;95.60;;;;;;5014072;28;20022;-66
2022/05/23 12:06:36;;;;;;;4.03;1.83;;;24.10;94.70;;;;;;5010647;28;20048;-70
2022/05/23 12:09:23;;;;;;;8.48;2.17;;;24.20;94.80;;;;;;5010258;28;20045;-68
2022/05/23 12:11:51;;;;;;;4.30;1.55;;;24.10;95.40;;;;;;4998872;28;20107;-66
2022/05/23 12:14:25;;;;;;;3.47;1.65;;;24.20;94.50;;;;;;5014059;28;20068;-67
2022/05/23 12:16:57;;;;;;;2.45;1.38;;;24.10;94.60;;;;;;5011171;28;20050;-66
2022/05/23 12:19:32;;;;;;;10.32;1.80;;;24.00;94.50;;;;;;5009947;28;20037;-67
2022/05/23 12:22:33;;;;;;;7.10;2.75;;;23.90;96.10;;;;;;5009324;28;20446;-67
2022/05/23 12:25:07;;;;;;;3.75;2.13;;;23.80;96.00;;;;;;5010763;28;20042;-67
2022/05/23 12:27:37;;;;;;;6.18;2.75;;;23.80;95.80;;;;;;5013427;28;20033;-67
2022/05/23 12:30:22;;;;;;;6.53;2.53;;;23.70;96.20;;;;;;5010935;28;20037;-70
2022/05/23 12:32:51;;;;;;;6.53;2.78;;;23.50;96.90;;;;;;5005515;28;20103;-69
2022/05/23 12:35:20;;;;;;;5.70;2.88;;;23.10;97.90;;;;;;5014185;28;20053;-67
2022/05/23 12:38:09;;;;;;;6.53;2.50;;;22.60;99.90;;;;;;5011457;28;20745;-67
2022/05/23 12:40:46;;;;;;;10.68;2.50;;;22.00;99.90;;;;;;5011040;28;20037;-70
2022/05/23 12:43:38;;;;;;;9.38;3.45;;;21.50;99.90;;;;;;5004673;28;20030;-67
2022/05/23 12:46:48;;;;;;;9.75;3.03;;;21.10;99.90;;;;;;5010727;28;20042;-66
2022/05/23 12:49:39;;;;;;;5.95;3.17;;;20.90;99.90;;;;;;4980844;28;20034;-69
2022/05/23 12:52:22;;;;;;;6.93;3.00;;;20.70;99.90;;;;;;4969902;28;20053;-70
2022/05/23 12:54:58;;;;;;;17.67;4.00;;;20.60;99.90;;;;;;5001294;28;20118;-65
2022/05/23 12:58:01;;;;;;;7.57;3.35;;;20.70;99.90;;;;;;5007340;28;20437;-67
2022/05/23 13:00:35;;;;;;;8.73;3.78;;;20.60;99.90;;;;;;5003494;28;20034;-67
2022/05/23 13:03:22;;;;;;;7.90;3.13;;;20.60;99.90;;;;;;5011126;28;20485;-68
2022/05/23 13:05:57;;;;;;;6.80;3.55;;;20.60;99.90;;;;;;5006959;28;20057;-68
2022/05/23 13:08:27;;;;;;;9.88;3.72;;;20.60;99.90;;;;;;5007755;28;20087;-68
2022/05/23 13:11:04;;;;;;;14.05;4.00;;;20.60;99.90;;;;;;5007111;28;20096;-68
2022/05/23 13:13:37;;;;;;;9.55;3.88;;;20.70;99.90;;;;;;5009178;28;20092;-67
2022/05/23 13:16:24;;;;;;;9.18;3.72;;;20.70;99.90;;;;;;5010663;28;20052;-67
2022/05/23 13:25:09;;;;;;;15.93;5.07;;;20.60;99.90;;;;;;5007693;28;20080;-68
2022/05/23 13:27:12;;;;;;;8.40;4.13;;;20.50;99.90;;;;;;5004617;28;20040;-67
2022/05/23 13:29:39;;;;;;;12.95;5.30;;;20.20;99.90;;;;;;5003631;28;20064;-67
2022/05/23 13:32:10;;;;;;;12.25;5.57;;;19.90;99.90;;;;;;5007657;28;20486;-67
2022/05/23 13:34:38;;;;;;;19.13;6.03;;;19.80;99.90;;;;;;5012823;28;20056;-68
2022/05/23 13:37:06;;;;;;;14.98;6.00;;;19.60;99.90;;;;;;5006872;28;20037;-68
2022/05/23 13:39:32;;;;;;;10.48;5.53;;;19.50;99.90;;;;;;5004087;28;20038;-69
2022/05/23 13:42:03;;;;;;;14.38;5.50;;;19.50;99.90;;;;;;5009126;28;20037;-68
2022/05/23 13:44:32;;;;;;;12.50;5.70;;;19.50;99.90;;;;;;5007034;28;20071;-67
2022/05/23 13:47:13;;;;;;;12.30;5.88;;;19.50;99.90;;;;;;5009610;28;20033;-68
2022/05/23 13:49:47;;;;;;;13.13;5.97;;;19.40;99.90;;;;;;5004311;28;20041;-67
2022/05/23 13:52:23;;;;;;;10.50;5.60;;;19.40;99.90;;;;;;5006965;28;20722;-67
2022/05/23 13:55:13;;;;;;;12.05;5.75;;;19.30;99.90;;;;;;5004199;28;20046;-69
2022/05/23 13:57:47;;;;;;;11.00;5.50;;;19.20;99.90;;;;;;4992842;28;20030;-68
2022/05/23 14:00:15;;;;;;;10.40;5.40;;;19.10;99.90;;;;;;5003152;28;20049;-67
2022/05/23 14:02:55;;;;;;;10.43;6.13;;;19.00;99.90;;;;;;5005079;28;20033;-67
2022/05/23 14:05:23;;;;;;;11.32;5.65;;;18.90;99.90;;;;;;5005062;28;20128;-68
2022/05/23 14:07:51;;;;;;;14.60;5.80;;;18.80;99.90;;;;;;5002070;28;20405;-67
2022/05/23 14:10:26;;;;;;;16.50;6.55;;;18.70;99.90;;;;;;5007808;28;20545;-67
2022/05/23 14:12:53;;;;;;;12.00;6.03;;;18.60;99.90;;;;;;5008624;28;20046;-69